• Join FlightAware (Why Join?)
  • Login
  • US Flag 
04:30PM EDT


 

Airport Tracker/Info


-or-


 

Live Flight TrackerFlight Track Log ✈ EJA929 ✈ 19-May-2013 ✈ KCHO - KOMA

Flight Track Log - Related Links

Times and Time Zones

All times are in EDT time to prevent confusion due to time zone crossing. See the EJA929 flight status page for this flight to view local times or setup timezone preferences in your user account.

Time Position Orientation Groundspeed Altitude Reporting Facility
EDT Latitude Longitude Course Direction KTS MPH feet Rate Location/Type
07:51PM 38.2100 -78.4564 278° West 238 274 4,100  Level Washington Center
07:52PM 38.2219 -78.5625 278° West 268 308 7,100 2,520 Climbing Washington Center
07:53PM 38.2258 -78.6603 273° West 280 322 9,100 1,920 Climbing Washington Center
07:54PM 38.2314 -78.7636 274° West 293 337 11,100 1,920 Climbing Washington Center
07:55PM 38.2369 -78.8722 274° West 318 366 13,000 1,680 Climbing Washington Center
07:56PM 38.2417 -78.9994 273° West 344 396 14,500 1,440 Climbing Washington Center
07:57PM 38.2464 -79.1267 273° West 365 420 15,900 1,500 Climbing Washington Center
07:58PM 38.2542 -79.2803 274° West 382 440 17,600 1,440 Climbing Washington Center
07:59PM 38.2603 -79.4181 273° West 393 452 18,800 1,260 Climbing Washington Center
08:00PM 38.2683 -79.5589 274° West 398 458 20,200 1,380 Climbing Washington Center
08:01PM 38.2722 -79.6911 272° West 411 473 21,600 1,380 Climbing Washington Center
08:02PM 38.2794 -79.8397 274° West 417 480 23,000 1,440 Climbing Washington Center
08:04PM 38.2925 -80.1633 273° West 445 512 26,000 1,500 Climbing Washington Center
08:05PM 38.2989 -80.3225 273° West 445 512 27,600 1,860 Climbing Washington Center
08:07PM 38.3111 -80.6600 273° West 445 512 32,100 1,980 Climbing Indianapolis Center
08:08PM 38.3175 -80.8150 273° West 437 503 34,100 1,800 Climbing Indianapolis Center
08:09PM 38.3464 -80.9664 284° West 439 505 35,900 1,740 Climbing Indianapolis Center
08:10PM 38.3942 -81.1108 293° West 441 507 37,700 1,620 Climbing Indianapolis Center
08:11PM 38.4383 -81.2572 291° West 441 507 39,300 1,080 Climbing Indianapolis Center
08:12PM 38.4694 -81.4106 285° West 442 509 40,000 900 Climbing Indianapolis Center
08:13PM 38.5017 -81.5689 285° West 452 520 41,200 1,200 Climbing Indianapolis Center
08:14PM 38.5328 -81.7222 285° West 441 507 42,500 840 Climbing Indianapolis Center
08:15PM 38.5633 -81.8731 285° West 435 501 43,000 240 Climbing Indianapolis Center
08:16PM 38.5950 -82.0286 285° West 445 512 43,000  Level Indianapolis Center
08:17PM 38.6272 -82.1911 284° West 466 536 43,000  Level Indianapolis Center
08:19PM 38.6661 -82.3911 284° West 480 552 43,000  Level Indianapolis Center
08:20PM 38.6975 -82.5589 284° West 484 557 43,000  Level Indianapolis Center
08:21PM 38.7308 -82.7261 284° West 486 559 43,000  Level Indianapolis Center
08:22PM 38.7619 -82.8908 284° West 478 550 43,000  Level Indianapolis Center
08:23PM 38.7931 -83.0572 284° West 480 552 43,000  Level Indianapolis Center
08:24PM 38.8281 -83.2369 284° West 477 549 43,000  Level Indianapolis Center
08:25PM 38.8581 -83.4017 283° West 471 542 43,000  Level Indianapolis Center
08:26PM 38.8881 -83.5656 283° West 467 537 43,000  Level Indianapolis Center
08:27PM 38.9183 -83.7306 283° West 468 539 43,000  Level Indianapolis Center
08:28PM 38.9486 -83.8969 283° West 471 542 43,000  Level Indianapolis Center
08:29PM 38.9778 -84.0628 283° West 470 541 43,000  Level Indianapolis Center
08:30PM 39.0075 -84.2269 283° West 468 539 43,000  Level Indianapolis Center
08:31PM 39.0367 -84.3939 283° West 471 542 43,000  Level Indianapolis Center
08:32PM 39.0658 -84.5647 282° West 479 551 43,000  Level Indianapolis Center
08:33PM 39.0978 -84.7356 284° West 483 556 43,000  Level Indianapolis Center
08:34PM 39.1269 -84.9064 282° West 485 558 43,000  Level Indianapolis Center
08:35PM 39.1558 -85.0761 282° West 486 559 43,000  Level Indianapolis Center
08:36PM 39.1897 -85.2781 282° West 483 556 43,000  Level Indianapolis Center
08:37PM 39.2186 -85.4461 283° West 480 552 43,000  Level Indianapolis Center
08:38PM 39.2450 -85.6150 281° West 479 551 43,000  Level Indianapolis Center
08:39PM 39.2739 -85.7833 283° West 480 552 43,000  Level Indianapolis Center
08:40PM 39.3003 -85.9517 282° West 479 551 43,000  Level Indianapolis Center
08:41PM 39.3283 -86.1211 282° West 480 552 43,000  Level Indianapolis Center
08:42PM 39.3547 -86.2906 281° West 478 550 43,000  Level Indianapolis Center
08:43PM 39.3817 -86.4606 282° West 479 551 43,000  Level Indianapolis Center
08:44PM 39.4083 -86.6286 282° West 475 547 43,000  Level Indianapolis Center
08:45PM 39.4342 -86.7967 281° West 473 544 43,000  Level Indianapolis Center
08:47PM 39.4769 -87.0761 281° West 470 541 43,000  Level Kansas City Center
08:47PM 39.4889 -87.1611 280° West 467 537 43,000  Level Indianapolis Center
08:48PM 39.5144 -87.3253 281° West 467 537 43,000  Level Indianapolis Center
08:49PM 39.5394 -87.4911 281° West 469 540 43,000  Level Indianapolis Center
08:50PM 39.5633 -87.6561 281° West 467 537 43,000  Level Indianapolis Center
08:51PM 39.5875 -87.8217 281° West 469 540 43,000  Level Indianapolis Center
08:52PM 39.6019 -87.9353 279° West 467 537 43,000  Level Kansas City Center
08:53PM 39.6250 -88.1000 280° West 466 536 43,000  Level Kansas City Center
08:53PM 39.6339 -88.1511 283° West 466 536 43,000  Level Indianapolis Center
08:54PM 39.6469 -88.2489 280° West 465 535 43,000  Level Kansas City Center
08:55PM 39.6706 -88.4142 281° West 466 536 43,000  Level Kansas City Center
08:56PM 39.6950 -88.5775 281° West 463 533 43,000  Level Kansas City Center
08:57PM 39.7292 -88.7742 283° West 463 533 43,000  Level Kansas City Center
08:58PM 39.7603 -88.9344 284° West 459 528 43,000  Level Kansas City Center
08:59PM 39.7903 -89.0969 284° West 461 531 43,000  Level Kansas City Center
09:00PM 39.8219 -89.2600 284° West 463 533 43,000  Level Kansas City Center
09:01PM 39.8506 -89.4242 283° West 464 534 43,000  Level Kansas City Center
09:02PM 39.8817 -89.5889 284° West 466 536 43,000  Level Kansas City Center
09:03PM 39.9125 -89.7533 284° West 467 537 43,000  Level Kansas City Center
09:04PM 39.9414 -89.9164 283° West 464 534 43,000  Level Kansas City Center
09:05PM 39.9594 -90.0150 283° West 461 531 43,000  Level Chicago Center
09:06PM 39.9881 -90.1769 283° West 457 526 43,000  Level Chicago Center
09:07PM 40.0239 -90.3725 284° West 462 532 43,000  Level Chicago Center
09:07PM 40.0292 -90.4050 282° West 458 527 43,000  Level Kansas City Center
09:08PM 40.0575 -90.5692 283° West 460 529 43,000  Level Kansas City Center
09:09PM 40.0853 -90.7311 283° West 458 527 43,000  Level Kansas City Center
09:10PM 40.1131 -90.8961 282° West 461 531 43,000  Level Kansas City Center
09:11PM 40.1433 -91.0675 283° West 461 531 43,000  Level Kansas City Center
09:12PM 40.1725 -91.2286 283° West 459 528 43,000  Level Kansas City Center
09:13PM 40.2450 -91.3661 305° West 466 536 43,000  Level Kansas City Center
09:14PM 40.3314 -91.5275 305° West 460 529 43,000  Level Kansas City Center
09:15PM 40.3769 -91.6083 307° West 459 528 43,000  Level Chicago Center
09:15PM 40.4047 -91.6622 304° West 458 527 43,000  Level Kansas City Center
09:16PM 40.4808 -91.7989 306° West 463 533 43,000  Level Kansas City Center
09:17PM 40.5586 -91.9350 307° West 468 539 43,000  Level Kansas City Center
09:18PM 40.6411 -92.0656 310° West 471 542 43,000  Level Kansas City Center
09:19PM 40.7097 -92.1694 311° West 475 547 43,000  Level Chicago Center
09:20PM 40.7964 -92.3000 311° West 478 550 43,000  Level Chicago Center
09:21PM 40.8808 -92.4322 310° West 478 550 43,000  Level Chicago Center
09:22PM 40.9697 -92.5636 312° West 483 556 43,000  Level Chicago Center
09:23PM 41.0531 -92.7428 302° West 484 557 43,000  Level Chicago Center
09:24PM 41.1408 -92.8747 311° West 491 565 43,000  Level Chicago Center
09:25PM 41.1817 -92.9236 318° Northwest 496 571 43,000  Level Minneapolis Center
09:26PM 41.2836 -93.0447 318° Northwest 496 571 43,000  Level Minneapolis Center
09:27PM 41.3844 -93.1689 317° Northwest 497 572 43,000  Level Minneapolis Center
09:28PM 41.4742 -93.2997 312° West 489 563 43,000  Level Minneapolis Center
09:29PM 41.5700 -93.4728 307° West 485 558 43,000 -180 Level Minneapolis Center
09:30PM 41.6517 -93.6147 308° West 487 560 42,700 -1,140 Descending Minneapolis Center
09:31PM 41.7231 -93.7744 301° West 504 580 40,700 -1,860 Descending Minneapolis Center
09:32PM 41.7756 -93.9397 293° West 493 567 38,900 -1,320 Descending Minneapolis Center
09:33PM 41.7758 -94.1183 270° West 483 556 38,000 -1,860 Descending Minneapolis Center
09:34PM 41.7481 -94.3278 260° West 480 552 35,100 -3,120 Descending Minneapolis Center
09:35PM 41.6967 -94.5019 248° West 501 577 31,000 -4,080 Descending Minneapolis Center
09:36PM 41.6419 -94.7011 250° West 475 547 26,000 -4,500 Descending Minneapolis Center
09:37PM 41.6003 -94.8483 249° West 428 493 21,800 -4,500 Descending Minneapolis Center
09:38PM 41.5789 -94.9806 258° West 351 404 17,400 -4,440 Descending Minneapolis Center
09:39PM 41.5433 -95.0967 248° West 330 380 13,400 -3,300 Descending Minneapolis Center
09:40PM 41.5025 -95.1972 242° Southwest 316 364 10,200 -1,620 Descending Minneapolis Center
09:41PM 41.5025 -95.3164 270° West 273 314 10,000 -120 Descending Minneapolis Center
09:42PM 41.4931 -95.4178 263° West 273 314 10,000 -300 Level Minneapolis Center
09:43PM 41.4786 -95.5142 259° West 268 308 9,500 -1,380 Descending Minneapolis Center
09:44PM 41.4567 -95.6197 255° West 250 288 7,100 -2,280 Descending Minneapolis Center
09:45PM 41.4400 -95.7108 256° West 255 293 4,800 -1,560 Descending Minneapolis Center
09:46PM 41.4264 -95.7903 257° West 218 251 4,000 -480 Descending Minneapolis Center
09:47PM 41.4139 -95.8558 256° West 198 228 3,900 -660 Descending Minneapolis Center
09:48PM 41.3864 -95.9117 237° Southwest 170 196 2,800 -1,020 Descending Minneapolis Center
09:49PM 41.3544 -95.9350 209° Southwest 124 143 1,900 -780 Descending Minneapolis Center
09:50PM 41.3239 -95.9161 155° Southeast 114 131 1,300 -420 Descending Minneapolis Center
09:52PM 41.2894 -95.8761 139° Southeast 130 150 1,000 -240 Descending Minneapolis Center